Time;durP1;ratioP1;P1;durP2;ratioP2;P2;SDS_P1;SDS_P2;PMS_P1;PMS_P2;Temp;Humidity;BMP_temperature;BMP_pressure;BME280_temperature;BME280_humidity;BME280_pressure;Samples;Min_cycle;Max_cycle;Signal;HPM_P1;HPM_P2
2021/12/07 00:01:27;;;;;;;53.83;28.83;;;;;;;1.41;84.70;100319.34;4974371;28;20109;-75
2021/12/07 00:03:53;;;;;;;49.17;28.77;;;;;;;1.47;84.38;100319.53;4972735;28;20469;-76
2021/12/07 00:06:20;;;;;;;40.63;25.10;;;;;;;1.46;83.90;100308.22;4963670;28;20064;-76
2021/12/07 00:08:49;;;;;;;40.72;24.98;;;;;;;1.45;84.21;100305.59;4966444;28;20137;-76
2021/12/07 00:11:15;;;;;;;43.85;25.27;;;;;;;1.47;84.23;100304.81;4968664;28;20043;-76
2021/12/07 00:13:42;;;;;;;40.40;24.02;;;;;;;1.50;83.53;100301.41;4965438;28;20038;-76
2021/12/07 00:16:09;;;;;;;44.28;26.30;;;;;;;1.52;83.92;100302.34;4961822;28;20054;-76
2021/12/07 00:18:36;;;;;;;40.67;24.15;;;;;;;1.54;84.09;100304.09;4965544;28;20037;-76
2021/12/07 00:21:03;;;;;;;44.42;25.38;;;;;;;1.58;83.82;100302.47;4960435;28;20122;-76
2021/12/07 00:23:29;;;;;;;41.75;24.88;;;;;;;1.59;83.54;100299.03;4944833;29;20042;-76
2021/12/07 00:25:54;;;;;;;45.75;25.25;;;;;;;1.56;83.62;100298.06;4964762;28;20049;-76
2021/12/07 00:28:22;;;;;;;45.22;25.95;;;;;;;1.56;83.75;100298.06;4962425;28;20079;-75
2021/12/07 00:30:49;;;;;;;42.08;25.10;;;;;;;1.59;83.47;100301.63;4964571;28;20045;-74
2021/12/07 00:33:31;;;;;;;39.65;25.02;;;;;;;1.62;83.56;100303.44;4962486;28;20050;-76
2021/12/07 00:35:56;;;;;;;43.17;24.67;;;;;;;1.58;83.29;100297.28;4960881;28;20038;-75
2021/12/07 00:38:25;;;;;;;41.45;23.20;;;;;;;1.56;83.56;100298.06;4969526;28;20756;-75
2021/12/07 00:40:53;;;;;;;46.25;26.23;;;;;;;1.57;83.66;100294.63;4962143;28;20039;-76
2021/12/07 00:43:19;;;;;;;38.55;22.48;;;;;;;1.57;83.55;100295.50;4964630;28;20046;-76
2021/12/07 00:45:46;;;;;;;34.67;21.88;;;;;;;1.59;83.58;100290.34;4961452;28;20039;-76
2021/12/07 00:48:14;;;;;;;38.10;21.52;;;;;;;1.59;83.44;100287.75;4963701;28;20563;-75
2021/12/07 00:50:42;;;;;;;38.80;23.08;;;;;;;1.60;83.53;100289.50;4961390;28;20039;-75
2021/12/07 00:53:08;;;;;;;41.33;24.23;;;;;;;1.58;83.38;100279.06;4963516;28;20073;-75
2021/12/07 00:55:38;;;;;;;35.05;22.30;;;;;;;1.62;83.17;100283.50;4966206;28;20035;-75
2021/12/07 00:58:12;;;;;;;37.08;22.95;;;;;;;1.54;83.41;100275.50;4976219;28;20031;-75
2021/12/07 01:00:41;;;;;;;37.38;20.70;;;;;;;1.56;82.92;100272.06;4978674;28;20597;-75
2021/12/07 01:03:06;;;;;;;37.25;22.23;;;;;;;1.56;83.42;100266.88;4961109;28;20038;-75
2021/12/07 01:05:35;;;;;;;38.58;23.10;;;;;;;1.52;83.53;100266.78;4978510;28;20448;-76
2021/12/07 01:26:53;;;;;;;35.30;21.10;;;;;;;1.58;83.42;100255.66;4961469;28;20031;-76
2021/12/07 01:29:23;;;;;;;39.83;22.77;;;;;;;1.59;83.04;100241.81;4977352;28;20031;-75
2021/12/07 01:37:34;;;;;;;44.85;23.80;;;;;;;1.59;83.42;100218.38;4966422;28;20074;-75
2021/12/07 01:43:04;;;;;;;36.85;22.02;;;;;;;1.52;83.39;100214.78;4966069;28;20453;-76
2021/12/07 01:51:16;;;;;;;35.28;20.92;;;;;;;1.40;82.51;100192.78;4965643;28;20062;-76
2021/12/07 01:59:55;;;;;;;41.33;23.73;;;;;;;0.75;83.54;100185.84;4966734;28;20066;-76
2021/12/07 02:01:55;;;;;;;37.15;23.38;;;;;;;0.61;84.02;100187.19;4967330;28;20422;-76
2021/12/07 02:04:21;;;;;;;40.35;23.05;;;;;;;0.51;84.26;100195.56;4981037;28;20043;-76
2021/12/07 02:06:47;;;;;;;40.15;22.58;;;;;;;0.44;84.88;100195.34;4980423;28;20134;-76
2021/12/07 02:09:13;;;;;;;37.08;22.40;;;;;;;0.44;85.15;100187.56;4965768;28;20174;-76
2021/12/07 02:11:46;;;;;;;37.22;22.50;;;;;;;0.39;84.87;100181.41;4963695;28;20039;-75
2021/12/07 02:14:17;;;;;;;41.47;22.17;;;;;;;0.31;85.40;100171.59;4965078;28;20042;-75
2021/12/07 02:16:51;;;;;;;42.27;23.33;;;;;;;0.28;85.30;100172.38;4981123;28;20042;-75
2021/12/07 02:19:18;;;;;;;35.17;20.65;;;;;;;0.26;85.35;100173.19;4981707;28;20035;-76
2021/12/07 02:21:45;;;;;;;39.27;22.60;;;;;;;0.25;85.67;100177.50;4971974;28;20497;-75
2021/12/07 02:24:17;;;;;;;44.03;23.97;;;;;;;0.24;85.55;100180.94;4965792;28;20702;-75
2021/12/07 02:26:43;;;;;;;41.35;22.65;;;;;;;0.25;85.62;100177.50;4979577;28;20151;-75
2021/12/07 02:29:09;;;;;;;43.47;24.17;;;;;;;0.31;86.04;100177.66;4965632;28;20122;-76
2021/12/07 02:31:34;;;;;;;42.00;22.90;;;;;;;0.37;85.42;100170.09;4963908;28;20038;-76
2021/12/07 02:34:01;;;;;;;42.13;23.97;;;;;;;0.41;85.42;100166.72;4964723;28;20100;-76
2021/12/07 02:36:27;;;;;;;42.10;23.93;;;;;;;0.42;85.13;100158.13;4965274;28;20046;-76
2021/12/07 02:38:54;;;;;;;44.67;24.73;;;;;;;0.38;85.44;100158.84;4980692;28;20528;-75
2021/12/07 02:41:20;;;;;;;41.70;22.10;;;;;;;0.41;85.47;100166.72;4980780;28;20031;-75
2021/12/07 02:43:46;;;;;;;40.58;23.60;;;;;;;0.50;85.32;100162.63;4963270;28;20099;-76
2021/12/07 02:46:12;;;;;;;37.67;21.93;;;;;;;0.47;85.37;100157.34;4977220;28;20037;-76
2021/12/07 02:48:38;;;;;;;37.50;21.27;;;;;;;0.46;85.40;100160.78;4966350;28;20410;-74
2021/12/07 02:51:04;;;;;;;39.70;22.20;;;;;;;0.43;85.40;100152.06;4962520;28;20038;-75
2021/12/07 02:53:33;;;;;;;40.13;21.17;;;;;;;0.34;84.83;100151.81;4971356;28;20110;-76
2021/12/07 02:56:02;;;;;;;36.85;20.58;;;;;;;0.33;85.21;100162.16;4981802;28;20039;-75
2021/12/07 02:58:32;;;;;;;36.67;22.48;;;;;;;0.30;85.17;100160.34;4979274;28;20039;-76
2021/12/07 03:01:10;;;;;;;43.67;24.70;;;;;;;0.26;84.81;100157.59;4965172;28;20031;-76
2021/12/07 03:03:54;;;;;;;35.13;21.83;;;;;;;0.26;85.67;100158.47;4980168;28;20041;-76
2021/12/07 03:09:21;;;;;;;35.78;22.05;;;;;;;0.39;85.30;100173.59;4965302;28;20039;-76
2021/12/07 03:28:08;;;;;;;34.60;19.77;;;;;;;0.83;83.80;100162.69;4963849;28;20077;-76
2021/12/07 03:30:36;;;;;;;32.80;19.55;;;;;;;0.79;83.75;100166.94;4980844;28;20482;-76
2021/12/07 03:33:03;;;;;;;31.60;19.23;;;;;;;0.78;83.75;100165.16;4962095;28;20038;-76
2021/12/07 03:35:30;;;;;;;30.98;20.13;;;;;;;0.80;83.86;100162.59;4964170;28;20047;-76
2021/12/07 03:37:56;;;;;;;37.60;20.15;;;;;;;0.85;83.85;100161.03;4963006;28;20519;-75
2021/12/07 03:40:22;;;;;;;33.22;19.35;;;;;;;0.82;83.02;100153.16;4965000;28;20034;-76
2021/12/07 03:42:47;;;;;;;34.83;20.20;;;;;;;0.72;83.46;100152.00;4980278;28;20042;-76
2021/12/07 03:45:13;;;;;;;33.88;20.50;;;;;;;0.61;83.49;100156.03;4966356;28;20039;-75
2021/12/07 03:47:39;;;;;;;37.70;21.50;;;;;;;0.53;83.81;100152.34;4965538;28;20117;-75
2021/12/07 03:50:06;;;;;;;35.67;20.50;;;;;;;0.47;83.89;100149.56;4963202;28;20035;-76
2021/12/07 03:52:32;;;;;;;34.13;18.40;;;;;;;0.39;83.93;100150.25;4963717;28;20039;-76
2021/12/07 03:54:57;;;;;;;33.45;18.98;;;;;;;0.33;83.94;100156.97;4977446;28;20045;-76
2021/12/07 03:57:23;;;;;;;31.97;18.73;;;;;;;0.24;84.07;100144.59;4979311;28;20115;-75
2021/12/07 03:59:48;;;;;;;32.90;19.87;;;;;;;0.16;84.61;100139.19;4979290;28;20063;-76
2021/12/07 04:02:15;;;;;;;33.37;18.77;;;;;;;0.13;84.61;100143.38;4978806;28;20062;-75
2021/12/07 04:04:41;;;;;;;33.50;18.90;;;;;;;0.07;84.24;100141.50;4964148;28;20057;-74
2021/12/07 04:07:07;;;;;;;28.53;17.63;;;;;;;0.02;84.47;100139.59;4961777;28;20433;-75
2021/12/07 04:09:33;;;;;;;31.17;17.43;;;;;;;-0.01;84.38;100145.56;4963923;28;20030;-76
2021/12/07 04:11:59;;;;;;;31.73;18.47;;;;;;;-0.06;84.28;100150.63;4961219;28;20031;-76
2021/12/07 04:14:25;;;;;;;31.27;18.50;;;;;;;-0.11;84.94;100148.72;4963878;28;20505;-76
2021/12/07 04:16:50;;;;;;;35.73;20.73;;;;;;;-0.17;84.67;100151.13;4944689;29;20070;-76
2021/12/07 04:19:16;;;;;;;32.13;18.37;;;;;;;-0.23;85.04;100142.34;4980259;28;20058;-75
2021/12/07 04:21:42;;;;;;;33.20;19.10;;;;;;;-0.27;84.78;100147.38;4979232;28;20048;-76
2021/12/07 04:24:07;;;;;;;30.33;17.90;;;;;;;-0.38;85.07;100147.03;4983084;28;20564;-76
2021/12/07 04:26:33;;;;;;;35.77;19.83;;;;;;;-0.39;85.16;100144.38;4964986;28;20623;-76
2021/12/07 04:28:58;;;;;;;30.87;17.60;;;;;;;-0.41;85.50;100146.94;4963551;28;20081;-75
2021/12/07 04:31:24;;;;;;;34.20;19.20;;;;;;;-0.40;85.17;100145.22;4966945;28;20066;-75
2021/12/07 04:33:49;;;;;;;30.90;18.43;;;;;;;-0.36;85.72;100149.69;4965069;28;20069;-76
2021/12/07 04:36:15;;;;;;;30.73;17.00;;;;;;;-0.33;85.23;100144.59;4961144;28;20046;-75
2021/12/07 04:38:41;;;;;;;34.47;19.87;;;;;;;-0.33;85.74;100142.88;4964344;28;20114;-75
2021/12/07 04:41:07;;;;;;;31.13;18.40;;;;;;;-0.33;85.43;100136.81;4962263;28;20031;-75
2021/12/07 04:43:35;;;;;;;34.97;19.53;;;;;;;-0.38;85.26;100126.28;4963520;28;20030;-76
2021/12/07 04:46:11;;;;;;;30.40;16.87;;;;;;;-0.49;85.24;100118.19;4961263;28;20122;-75
2021/12/07 04:49:08;;;;;;;33.43;19.37;;;;;;;-0.58;84.78;100119.59;4966137;28;20401;-76
2021/12/07 04:59:35;;;;;;;27.57;16.97;;;;;;;-0.92;85.57;100140.13;4963595;28;20043;-75
2021/12/07 05:02:00;;;;;;;29.37;16.30;;;;;;;-0.98;85.72;100150.25;4961561;28;20090;-75
2021/12/07 05:04:29;;;;;;;31.07;18.50;;;;;;;-1.04;85.79;100137.09;4966362;28;20125;-75
2021/12/07 05:07:04;;;;;;;33.23;18.30;;;;;;;-1.06;86.43;100149.13;4966067;28;20035;-75
2021/12/07 05:09:41;;;;;;;31.30;17.63;;;;;;;-1.03;86.15;100154.41;4963724;28;20039;-77
2021/12/07 05:14:37;;;;;;;31.93;19.37;;;;;;;-0.85;86.14;100148.09;4960909;28;20043;-76
2021/12/07 05:17:24;;;;;;;32.93;18.53;;;;;;;-0.77;86.57;100150.09;4964654;28;20097;-76
2021/12/07 05:26:03;;;;;;;29.87;16.90;;;;;;;-0.82;85.66;100132.63;4961782;28;20383;-76
2021/12/07 05:34:39;;;;;;;31.10;17.43;;;;;;;-1.01;85.22;100138.91;4961808;28;20031;-75
2021/12/07 05:39:29;;;;;;;30.37;17.70;;;;;;;-1.29;85.93;100139.66;4968253;28;20034;-76
2021/12/07 05:41:56;;;;;;;28.80;17.70;;;;;;;-1.30;86.04;100148.28;4965442;28;20110;-76
2021/12/07 05:44:22;;;;;;;39.13;21.37;;;;;;;-1.35;86.49;100151.56;4962966;28;20133;-77
2021/12/07 05:46:47;;;;;;;58.17;28.10;;;;;;;-1.36;86.25;100160.16;4962749;28;20050;-76
2021/12/07 05:49:12;;;;;;;40.57;22.83;;;;;;;-1.40;87.02;100147.94;4977396;28;20039;-77
2021/12/07 05:51:38;;;;;;;37.50;19.90;;;;;;;-1.42;86.37;100161.66;4978758;28;20089;-77
2021/12/07 05:54:03;;;;;;;28.40;16.53;;;;;;;-1.46;86.26;100152.91;4961738;28;20039;-76
2021/12/07 05:56:28;;;;;;;32.63;18.30;;;;;;;-1.48;86.48;100164.03;4966193;28;20039;-76
2021/12/07 05:58:54;;;;;;;28.67;17.13;;;;;;;-1.53;86.55;100163.84;4968372;28;20039;-76
2021/12/07 06:01:19;;;;;;;31.33;17.70;;;;;;;-1.56;86.53;100181.84;4971234;28;20034;-76
2021/12/07 06:03:45;;;;;;;29.70;16.90;;;;;;;-1.61;86.59;100173.91;4971439;28;20038;-76
2021/12/07 06:06:10;;;;;;;33.10;18.67;;;;;;;-1.67;86.05;100170.25;4961276;28;20207;-76
2021/12/07 06:08:35;;;;;;;30.23;16.90;;;;;;;-1.74;86.73;100166.53;4962741;28;20046;-76
2021/12/07 06:11:01;;;;;;;27.47;15.90;;;;;;;-1.76;87.36;100160.41;4962779;28;20122;-76
2021/12/07 06:13:26;;;;;;;32.47;18.50;;;;;;;-1.77;87.36;100161.25;4962115;28;20063;-76
2021/12/07 06:15:52;;;;;;;27.30;15.27;;;;;;;-1.81;87.18;100157.66;4963204;28;20503;-76
2021/12/07 06:18:18;;;;;;;30.50;16.23;;;;;;;-1.81;87.08;100165.44;4963095;28;20570;-77
2021/12/07 06:20:43;;;;;;;53.40;29.20;;;;;;;-1.79;87.52;100163.75;4967758;28;20062;-76
2021/12/07 06:23:11;;;;;;;37.60;22.63;;;;;;;-1.76;87.34;100173.34;4964777;28;20041;-76
2021/12/07 06:25:37;;;;;;;33.67;19.23;;;;;;;-1.79;86.40;100168.06;4971039;28;20039;-76
2021/12/07 06:28:03;;;;;;;30.27;17.37;;;;;;;-1.81;86.57;100168.03;4962543;28;20039;-76
2021/12/07 06:30:28;;;;;;;32.77;17.67;;;;;;;-1.84;86.41;100161.81;4968076;28;20042;-76
2021/12/07 06:32:54;;;;;;;31.57;18.40;;;;;;;-1.87;86.32;100170.34;4965232;28;20045;-75
2021/12/07 06:35:19;;;;;;;33.20;17.73;;;;;;;-1.90;86.70;100165.06;4966426;28;20077;-76
2021/12/07 06:37:45;;;;;;;31.90;17.33;;;;;;;-1.91;86.75;100172.75;4965330;28;20045;-77
2021/12/07 06:40:11;;;;;;;37.43;20.07;;;;;;;-1.98;86.58;100171.66;4970549;28;20047;-76
2021/12/07 06:42:38;;;;;;;34.30;18.67;;;;;;;-2.07;86.93;100179.03;4971515;28;20043;-76
2021/12/07 06:45:10;;;;;;;37.53;20.83;;;;;;;-2.07;87.40;100176.47;4971706;28;20041;-76
2021/12/07 06:47:36;;;;;;;45.83;21.20;;;;;;;-2.07;87.33;100179.97;4975993;28;20049;-77
2021/12/07 06:50:08;;;;;;;40.03;22.17;;;;;;;-2.01;86.64;100189.66;4977733;28;20047;-75
2021/12/07 06:52:33;;;;;;;35.97;19.33;;;;;;;-2.01;87.33;100181.91;4978419;28;20081;-76
2021/12/07 06:54:59;;;;;;;33.33;19.27;;;;;;;-2.01;87.52;100187.06;4969213;28;20387;-76
2021/12/07 06:57:25;;;;;;;35.03;19.07;;;;;;;-1.98;87.29;100187.19;4972809;28;20035;-77
2021/12/07 06:59:51;;;;;;;32.27;19.50;;;;;;;-1.98;87.55;100185.47;4968177;28;20117;-77
2021/12/07 07:02:17;;;;;;;35.00;20.10;;;;;;;-1.96;87.52;100188.13;4968487;28;20062;-77
2021/12/07 07:04:44;;;;;;;31.90;18.37;;;;;;;-1.94;87.26;100196.81;4971643;28;20046;-76
2021/12/07 07:07:10;;;;;;;33.20;19.03;;;;;;;-1.92;87.45;100202.91;4965829;28;20106;-77
2021/12/07 07:09:35;;;;;;;34.57;17.77;;;;;;;-1.89;87.56;100194.41;4966151;28;20047;-77
2021/12/07 07:12:01;;;;;;;34.07;18.40;;;;;;;-1.88;87.38;100184.13;4972821;28;20038;-77
2021/12/07 07:14:26;;;;;;;33.67;17.67;;;;;;;-1.86;87.57;100187.66;4968584;28;20123;-77
2021/12/07 07:16:52;;;;;;;33.53;19.47;;;;;;;-1.87;87.17;100196.22;4965307;28;20043;-77
2021/12/07 07:19:17;;;;;;;32.60;17.20;;;;;;;-1.86;86.79;100182.50;4968068;28;20046;-77
2021/12/07 07:21:42;;;;;;;33.20;18.00;;;;;;;-1.82;87.55;100197.28;4948457;28;20039;-77
2021/12/07 07:24:08;;;;;;;29.93;18.37;;;;;;;-1.80;87.65;100198.22;4967489;28;20105;-77
2021/12/07 07:26:33;;;;;;;36.03;18.43;;;;;;;-1.72;87.04;100195.06;4970998;28;20150;-77
2021/12/07 07:28:59;;;;;;;33.23;18.10;;;;;;;-1.66;87.03;100197.88;4966085;28;20078;-76
2021/12/07 07:31:24;;;;;;;31.90;18.37;;;;;;;-1.61;86.44;100194.63;4963815;28;20058;-77
2021/12/07 07:33:51;;;;;;;35.03;19.83;;;;;;;-1.53;87.17;100196.63;4956668;28;20113;-77
2021/12/07 07:36:16;;;;;;;34.63;19.53;;;;;;;-1.44;86.99;100195.25;4967047;28;20539;-77
2021/12/07 07:38:42;;;;;;;44.13;24.23;;;;;;;-1.37;86.84;100201.53;4967368;28;20074;-77
2021/12/07 07:41:07;;;;;;;46.47;26.07;;;;;;;-1.30;86.61;100206.09;4965021;28;20062;-77
2021/12/07 07:43:33;;;;;;;45.53;25.77;;;;;;;-1.22;86.22;100211.56;4966833;28;20050;-77
2021/12/07 07:46:25;;;;;;;39.70;22.67;;;;;;;-1.14;86.50;100212.72;4965979;28;20444;-77
2021/12/07 07:48:50;;;;;;;38.40;21.77;;;;;;;-1.06;86.32;100210.41;4963745;28;20142;-77
2021/12/07 07:51:15;;;;;;;36.47;20.27;;;;;;;-0.99;85.94;100208.09;4967693;28;20134;-78
2021/12/07 07:53:41;;;;;;;40.03;22.80;;;;;;;-0.89;85.98;100211.88;4972542;28;20035;-79
2021/12/07 07:56:07;;;;;;;36.97;20.80;;;;;;;-0.80;85.96;100217.38;4973755;28;20051;-78
2021/12/07 07:58:33;;;;;;;35.27;20.23;;;;;;;-0.70;86.20;100215.97;4976071;28;20029;-78
2021/12/07 08:01:00;;;;;;;36.87;20.63;;;;;;;-0.58;85.79;100221.56;4969301;28;20555;-78
2021/12/07 08:03:25;;;;;;;44.53;24.83;;;;;;;-0.45;86.28;100217.66;4968133;28;20046;-77
2021/12/07 08:05:51;;;;;;;39.53;22.80;;;;;;;-0.33;85.56;100222.38;4969433;28;20039;-78
2021/12/07 08:08:20;;;;;;;43.77;23.30;;;;;;;-0.24;85.53;100209.69;4966178;28;20390;-78
2021/12/07 08:10:46;;;;;;;38.47;22.87;;;;;;;-0.20;85.49;100221.94;4978524;28;20045;-77
2021/12/07 08:13:14;;;;;;;36.70;20.37;;;;;;;-0.20;85.12;100211.56;4965886;28;20410;-78
2021/12/07 08:15:43;;;;;;;34.77;19.80;;;;;;;-0.15;84.89;100215.19;4969386;28;20041;-78
2021/12/07 08:18:11;;;;;;;39.13;22.00;;;;;;;-0.13;84.99;100208.34;4965636;28;20042;-78
2021/12/07 08:20:38;;;;;;;42.10;23.83;;;;;;;-0.11;85.10;100210.97;4970135;28;20037;-78
2021/12/07 08:23:04;;;;;;;35.63;21.23;;;;;;;-0.08;85.00;100199.00;4966832;28;20094;-78
2021/12/07 08:25:34;;;;;;;35.80;20.93;;;;;;;-0.04;84.59;100199.97;4970029;28;20042;-78
2021/12/07 08:28:00;;;;;;;38.53;20.63;;;;;;;-0.04;84.61;100197.38;4966895;28;20039;-77
2021/12/07 08:30:26;;;;;;;37.70;22.23;;;;;;;-0.04;84.75;100200.84;4970097;28;20038;-78
2021/12/07 08:32:51;;;;;;;37.03;21.77;;;;;;;0.00;84.84;100199.25;4966453;28;20039;-77
2021/12/07 08:35:18;;;;;;;33.93;19.63;;;;;;;0.02;84.60;100194.09;4969988;28;20126;-78
2021/12/07 08:37:46;;;;;;;33.53;20.10;;;;;;;0.07;84.32;100200.31;4970538;28;20560;-78
2021/12/07 08:40:14;;;;;;;34.27;20.50;;;;;;;0.11;84.18;100205.63;4972754;28;20043;-78
2021/12/07 08:42:39;;;;;;;40.17;23.67;;;;;;;0.15;84.03;100201.41;4965940;28;20519;-78
2021/12/07 08:45:06;;;;;;;35.35;21.50;;;;;;;0.20;84.58;100211.09;4969411;28;20047;-78
2021/12/07 08:47:32;;;;;;;39.57;22.50;;;;;;;0.24;83.94;100209.50;4973450;28;20031;-78
2021/12/07 08:49:57;;;;;;;36.20;20.80;;;;;;;0.31;84.05;100216.59;4973743;28;20058;-78
2021/12/07 08:52:23;;;;;;;37.73;21.83;;;;;;;0.35;83.94;100213.28;4971443;28;20038;-78
2021/12/07 08:59:59;;;;;;;35.83;21.30;;;;;;;0.57;83.75;100216.50;4970751;28;20418;-78
2021/12/07 09:02:26;;;;;;;42.17;24.57;;;;;;;0.67;82.99;100228.91;4952256;28;20046;-77
2021/12/07 09:04:53;;;;;;;38.03;22.00;;;;;;;0.75;83.09;100222.22;4981034;28;20049;-78
2021/12/07 09:07:19;;;;;;;40.83;23.00;;;;;;;0.90;82.95;100229.56;4969014;28;20066;-78
2021/12/07 09:09:45;;;;;;;39.47;22.55;;;;;;;1.06;82.35;100229.16;4981503;28;21041;-78
2021/12/07 09:12:12;;;;;;;38.53;23.25;;;;;;;1.34;82.29;100224.72;4968732;28;20035;-78
2021/12/07 09:14:38;;;;;;;35.55;21.02;;;;;;;1.61;81.98;100227.13;4968045;28;20050;-79
2021/12/07 09:17:05;;;;;;;32.42;19.73;;;;;;;1.83;80.95;100212.91;4974298;28;20126;-79
2021/12/07 09:19:31;;;;;;;29.42;18.38;;;;;;;1.95;80.56;100220.13;4970335;28;20049;-79
2021/12/07 09:21:57;;;;;;;32.25;19.65;;;;;;;2.03;80.72;100215.97;4967359;28;20031;-79
2021/12/07 09:24:23;;;;;;;32.50;20.80;;;;;;;2.08;79.95;100213.50;4967559;28;20038;-79
2021/12/07 09:26:49;;;;;;;47.30;25.00;;;;;;;2.15;79.81;100212.81;4966352;28;21226;-79
2021/12/07 09:29:15;;;;;;;41.63;25.17;;;;;;;2.23;79.68;100205.13;4973081;28;20066;-79
2021/12/07 09:31:41;;;;;;;47.72;27.40;;;;;;;2.31;79.75;100211.41;4973536;28;20039;-79
2021/12/07 09:34:07;;;;;;;37.55;22.63;;;;;;;2.36;79.33;100213.28;4971240;28;20045;-79
2021/12/07 09:36:33;;;;;;;32.00;19.95;;;;;;;2.42;78.23;100223.81;4970057;28;20143;-79
2021/12/07 09:39:00;;;;;;;37.13;23.27;;;;;;;2.45;78.74;100217.78;4982208;28;20129;-79
2021/12/07 09:41:26;;;;;;;41.55;24.08;;;;;;;2.58;78.91;100225.03;4970059;28;20046;-79
2021/12/07 09:43:53;;;;;;;52.40;29.90;;;;;;;2.66;78.75;100224.31;4973161;28;20058;-79
2021/12/07 09:46:19;;;;;;;50.00;29.15;;;;;;;2.77;78.53;100225.41;4966441;28;20069;-79
2021/12/07 09:48:46;;;;;;;49.00;29.52;;;;;;;2.85;78.38;100223.81;4981353;28;20043;-79
2021/12/07 09:51:16;;;;;;;51.08;30.25;;;;;;;2.96;78.35;100230.16;4981340;28;20070;-79
2021/12/07 09:53:42;;;;;;;38.88;23.60;;;;;;;3.06;77.97;100224.25;4976917;28;20039;-79
2021/12/07 09:56:08;;;;;;;32.08;20.00;;;;;;;3.13;77.44;100221.78;4972413;28;20046;-79
2021/12/07 09:58:34;;;;;;;37.50;22.98;;;;;;;3.17;77.05;100226.19;4971804;28;20039;-79
2021/12/07 10:01:00;;;;;;;48.33;28.60;;;;;;;3.18;77.47;100218.41;4973570;28;20050;-79
2021/12/07 10:03:26;;;;;;;34.92;21.52;;;;;;;3.27;77.45;100225.50;4973157;28;20035;-79
2021/12/07 10:05:53;;;;;;;31.23;19.90;;;;;;;3.31;76.70;100218.63;4976173;28;20070;-79
2021/12/07 10:08:19;;;;;;;28.17;18.58;;;;;;;3.39;76.47;100225.72;4975116;28;21283;-78
2021/12/07 10:10:48;;;;;;;27.65;17.17;;;;;;;3.43;75.82;100211.91;4971613;28;20049;-79
2021/12/07 10:13:15;;;;;;;35.58;22.02;;;;;;;3.49;76.04;100204.19;4969455;28;20101;-79
2021/12/07 10:15:42;;;;;;;28.10;19.13;;;;;;;3.61;75.69;100207.84;4971574;28;20045;-79
2021/12/07 10:18:16;;;;;;;28.63;17.58;;;;;;;3.68;75.28;100205.34;4970253;28;20551;-79
2021/12/07 10:20:45;;;;;;;27.90;17.48;;;;;;;3.62;74.57;100205.25;4968978;28;20414;-79
2021/12/07 10:23:13;;;;;;;30.00;18.77;;;;;;;3.67;74.71;100201.00;4964162;28;20030;-80
2021/12/07 10:25:40;;;;;;;28.27;18.25;;;;;;;3.66;74.74;100204.44;4976002;28;20038;-79
2021/12/07 10:28:24;;;;;;;29.02;18.42;;;;;;;3.68;74.59;100207.09;4978094;28;20027;-79
2021/12/07 10:30:51;;;;;;;25.95;16.73;;;;;;;3.62;75.17;100205.25;4972673;28;20043;-80
2021/12/07 10:33:36;;;;;;;30.10;17.88;;;;;;;3.65;74.53;100213.13;4969913;28;20027;-79
2021/12/07 10:36:34;;;;;;;28.75;17.42;;;;;;;3.66;74.60;100209.66;4972615;28;20034;-80
2021/12/07 10:39:14;;;;;;;28.80;18.67;;;;;;;3.65;74.49;100209.66;4976865;28;20043;-79
2021/12/07 10:41:49;;;;;;;27.38;18.63;;;;;;;3.65;74.31;100209.66;4972815;28;20424;-79
2021/12/07 10:44:26;;;;;;;28.55;18.05;;;;;;;3.66;74.46;100201.84;4970064;28;20042;-80
2021/12/07 10:47:05;;;;;;;27.70;18.95;;;;;;;3.64;74.21;100197.44;4984980;28;20038;-79
2021/12/07 10:49:43;;;;;;;29.42;19.48;;;;;;;3.66;74.52;100207.06;4972919;28;20042;-80
2021/12/07 10:52:32;;;;;;;29.35;19.77;;;;;;;3.70;73.93;100208.00;4969687;28;20039;-80
2021/12/07 10:55:09;;;;;;;30.25;18.58;;;;;;;3.67;74.30;100201.00;4968360;28;20089;-79
2021/12/07 10:57:45;;;;;;;38.38;22.58;;;;;;;3.65;74.77;100205.31;4974488;28;20031;-80
2021/12/07 11:00:29;;;;;;;36.42;22.38;;;;;;;3.61;74.62;100202.63;4974924;28;20035;-79
2021/12/07 11:02:58;;;;;;;36.67;23.00;;;;;;;3.56;74.34;100205.13;4975601;28;20039;-80
2021/12/07 11:05:30;;;;;;;47.60;26.80;;;;;;;3.43;74.72;100196.25;4993890;28;20126;-83
2021/12/07 11:07:57;;;;;;;56.50;32.53;;;;;;;3.30;74.91;100189.03;4977098;28;20046;-82
2021/12/07 11:10:32;;;;;;;53.28;33.28;;;;;;;3.19;75.01;100199.28;4977495;28;20047;-83
2021/12/07 11:18:00;;;;;;;55.05;32.10;;;;;;;3.03;75.90;100189.41;5011260;28;20048;-81
2021/12/07 11:20:28;;;;;;;41.28;25.13;;;;;;;2.96;75.75;100175.41;5012133;28;20029;-79
2021/12/07 11:22:59;;;;;;;35.97;21.00;;;;;;;2.96;76.43;100174.50;5008917;28;20097;-80
2021/12/07 11:31:55;;;;;;;45.30;24.25;;;;;;;2.86;76.56;100183.91;5027942;28;20042;-79
2021/12/07 11:34:39;;;;;;;46.92;25.58;;;;;;;2.85;76.85;100188.22;5029238;28;20069;-78
2021/12/07 11:37:07;;;;;;;39.83;22.30;;;;;;;2.90;76.80;100179.63;5025089;28;20079;-79
2021/12/07 11:39:50;;;;;;;47.47;28.70;;;;;;;2.95;77.65;100186.66;5030049;28;20064;-77
2021/12/07 11:42:23;;;;;;;56.42;31.88;;;;;;;2.97;77.42;100187.59;5017136;28;20041;-81
2021/12/07 11:44:53;;;;;;;59.92;32.97;;;;;;;3.05;77.43;100183.38;5010434;28;20487;-79
2021/12/07 11:47:30;;;;;;;51.50;30.13;;;;;;;3.16;77.70;100186.19;5014492;28;20038;-78
2021/12/07 11:49:58;;;;;;;53.95;31.67;;;;;;;3.29;77.41;100182.94;5015730;28;20037;-79
2021/12/07 11:52:23;;;;;;;48.67;28.88;;;;;;;3.36;77.32;100173.50;5015425;28;20034;-79
2021/12/07 11:54:49;;;;;;;36.22;21.80;;;;;;;3.41;76.95;100179.69;5015415;28;20623;-79
2021/12/07 11:57:16;;;;;;;31.88;21.27;;;;;;;3.49;76.46;100179.81;5030689;28;20069;-78
2021/12/07 11:59:43;;;;;;;35.25;21.70;;;;;;;3.56;76.00;100184.25;5031025;28;20046;-80
2021/12/07 12:02:08;;;;;;;41.30;22.75;;;;;;;3.61;75.94;100194.78;5016769;28;20069;-79
2021/12/07 12:04:33;;;;;;;40.97;24.45;;;;;;;3.64;76.07;100187.00;5017163;28;20037;-80
2021/12/07 12:07:00;;;;;;;36.17;21.05;;;;;;;3.69;75.80;100185.34;5017649;28;20092;-79
2021/12/07 12:09:26;;;;;;;33.72;21.23;;;;;;;3.70;75.81;100192.34;5024525;28;20038;-79
2021/12/07 12:12:10;;;;;;;28.73;19.27;;;;;;;3.72;75.31;100195.84;5015451;28;20088;-79
2021/12/07 12:15:06;;;;;;;35.33;20.25;;;;;;;3.77;75.24;100191.56;5030429;28;20049;-79
2021/12/07 12:17:36;;;;;;;36.97;23.05;;;;;;;3.72;75.40;100188.00;5015462;28;20038;-79
2021/12/07 12:20:24;;;;;;;42.65;24.77;;;;;;;3.70;75.30;100192.34;5016680;28;20056;-79
2021/12/07 12:23:19;;;;;;;43.65;23.88;;;;;;;3.66;75.30;100185.31;5018418;28;20034;-80
2021/12/07 12:25:54;;;;;;;38.75;22.30;;;;;;;3.73;75.93;100192.38;5016302;28;20073;-80
2021/12/07 12:28:47;;;;;;;35.15;21.55;;;;;;;3.82;75.41;100187.28;5018976;28;20093;-80
2021/12/07 12:31:13;;;;;;;30.98;18.83;;;;;;;3.87;75.77;100175.19;5018283;28;20041;-80
2021/12/07 12:33:50;;;;;;;29.45;18.75;;;;;;;3.98;75.51;100183.19;5018528;28;20042;-80
2021/12/07 12:36:18;;;;;;;34.22;19.50;;;;;;;4.04;75.35;100183.28;5017724;28;20084;-80
2021/12/07 12:39:00;;;;;;;30.02;18.67;;;;;;;4.04;75.00;100180.69;5037821;28;20712;-80
2021/12/07 12:41:26;;;;;;;33.65;20.17;;;;;;;4.11;75.10;100185.16;5020315;28;20038;-80
2021/12/07 12:43:59;;;;;;;29.30;17.52;;;;;;;4.16;74.71;100188.69;5034258;28;20049;-81
2021/12/07 12:46:30;;;;;;;30.23;18.27;;;;;;;4.22;75.05;100177.47;5035893;28;20523;-79
2021/12/07 12:48:58;;;;;;;30.50;18.02;;;;;;;4.28;74.58;100182.75;5016367;28;20090;-81
2021/12/07 12:51:26;;;;;;;31.25;19.20;;;;;;;4.29;74.43;100187.13;5034165;28;20079;-81
2021/12/07 12:53:53;;;;;;;27.83;17.80;;;;;;;4.33;74.09;100182.84;5013477;28;20116;-80
2021/12/07 12:56:25;;;;;;;27.77;17.40;;;;;;;4.38;74.04;100183.78;5032767;28;20026;-80
2021/12/07 12:58:58;;;;;;;28.52;17.70;;;;;;;4.45;73.90;100190.81;5030890;28;20041;-81
2021/12/07 13:01:27;;;;;;;27.40;17.52;;;;;;;4.46;73.67;100181.25;5022295;28;20057;-82